sensor_id;sensor_type;location;lat;lon;timestamp;temperature;humidity
71084;DHT22;58741;52.672;13.548;2023-03-01T00:01:17;-3.50;84.00
71084;DHT22;58741;52.672;13.548;2023-03-01T00:03:43;-3.50;83.90
71084;DHT22;58741;52.672;13.548;2023-03-01T00:06:09;-3.50;84.40
71084;DHT22;58741;52.672;13.548;2023-03-01T00:08:35;-3.50;85.10
71084;DHT22;58741;52.672;13.548;2023-03-01T00:11:03;-3.50;85.10
71084;DHT22;58741;52.672;13.548;2023-03-01T00:13:29;-3.60;85.00
71084;DHT22;58741;52.672;13.548;2023-03-01T00:15:55;-3.60;85.00
71084;DHT22;58741;52.672;13.548;2023-03-01T00:18:21;-3.60;85.50
71084;DHT22;58741;52.672;13.548;2023-03-01T00:20:53;-3.60;85.30
71084;DHT22;58741;52.672;13.548;2023-03-01T00:23:19;-3.60;85.40
71084;DHT22;58741;52.672;13.548;2023-03-01T00:25:45;-3.70;85.50
71084;DHT22;58741;52.672;13.548;2023-03-01T00:28:11;-3.70;85.50
71084;DHT22;58741;52.672;13.548;2023-03-01T00:30:36;-3.70;85.50
71084;DHT22;58741;52.672;13.548;2023-03-01T00:33:02;-3.70;85.40
71084;DHT22;58741;52.672;13.548;2023-03-01T00:35:28;-3.70;85.30
71084;DHT22;58741;52.672;13.548;2023-03-01T00:37:53;-3.70;85.60
71084;DHT22;58741;52.672;13.548;2023-03-01T00:40:31;-3.70;86.10
71084;DHT22;58741;52.672;13.548;2023-03-01T00:42:57;-3.80;86.20
71084;DHT22;58741;52.672;13.548;2023-03-01T00:45:22;-3.80;86.60
71084;DHT22;58741;52.672;13.548;2023-03-01T00:47:49;-3.80;86.50
71084;DHT22;58741;52.672;13.548;2023-03-01T00:50:15;-3.80;86.30
71084;DHT22;58741;52.672;13.548;2023-03-01T00:52:41;-3.80;87.50
71084;DHT22;58741;52.672;13.548;2023-03-01T00:55:07;-3.80;86.80
71084;DHT22;58741;52.672;13.548;2023-03-01T00:57:33;-3.80;86.70
71084;DHT22;58741;52.672;13.548;2023-03-01T00:59:59;-3.90;86.50
71084;DHT22;58741;52.672;13.548;2023-03-01T01:02:25;-3.90;86.80
71084;DHT22;58741;52.672;13.548;2023-03-01T01:04:51;-3.90;86.90
71084;DHT22;58741;52.672;13.548;2023-03-01T01:07:17;-3.90;87.30
71084;DHT22;58741;52.672;13.548;2023-03-01T01:09:42;-3.90;87.00
71084;DHT22;58741;52.672;13.548;2023-03-01T01:12:08;-3.90;87.00
71084;DHT22;58741;52.672;13.548;2023-03-01T01:14:35;-3.90;87.30
71084;DHT22;58741;52.672;13.548;2023-03-01T01:17:01;-4.00;87.00
71084;DHT22;58741;52.672;13.548;2023-03-01T01:19:26;-4.00;86.90
71084;DHT22;58741;52.672;13.548;2023-03-01T01:21:53;-4.00;87.10
71084;DHT22;58741;52.672;13.548;2023-03-01T01:24:19;-4.00;87.30
71084;DHT22;58741;52.672;13.548;2023-03-01T01:26:45;-4.00;87.50
71084;DHT22;58741;52.672;13.548;2023-03-01T01:29:11;-4.10;87.50
71084;DHT22;58741;52.672;13.548;2023-03-01T01:31:39;-4.10;87.10
71084;DHT22;58741;52.672;13.548;2023-03-01T01:34:06;-4.10;86.80
71084;DHT22;58741;52.672;13.548;2023-03-01T01:36:33;-4.10;87.00
71084;DHT22;58741;52.672;13.548;2023-03-01T01:39:00;-4.10;87.30
71084;DHT22;58741;52.672;13.548;2023-03-01T01:41:28;-4.10;87.20
71084;DHT22;58741;52.672;13.548;2023-03-01T01:44:16;-4.20;87.50
71084;DHT22;58741;52.672;13.548;2023-03-01T01:52:41;-4.20;86.60
71084;DHT22;58741;52.672;13.548;2023-03-01T01:57:43;-4.30;86.30
71084;DHT22;58741;52.672;13.548;2023-03-01T02:00:16;-4.30;86.40
71084;DHT22;58741;52.672;13.548;2023-03-01T02:02:44;-4.30;87.10
71084;DHT22;58741;52.672;13.548;2023-03-01T02:05:27;-4.30;87.30
71084;DHT22;58741;52.672;13.548;2023-03-01T02:07:54;-4.30;87.40
71084;DHT22;58741;52.672;13.548;2023-03-01T02:10:22;-4.40;88.10
71084;DHT22;58741;52.672;13.548;2023-03-01T02:12:49;-4.40;88.00
71084;DHT22;58741;52.672;13.548;2023-03-01T02:15:14;-4.40;87.70
71084;DHT22;58741;52.672;13.548;2023-03-01T02:17:41;-4.40;87.40
71084;DHT22;58741;52.672;13.548;2023-03-01T02:20:34;-4.40;87.10
71084;DHT22;58741;52.672;13.548;2023-03-01T02:23:00;-4.40;87.00
71084;DHT22;58741;52.672;13.548;2023-03-01T02:25:32;-4.50;87.30
71084;DHT22;58741;52.672;13.548;2023-03-01T02:30:42;-4.50;87.70
71084;DHT22;58741;52.672;13.548;2023-03-01T02:33:29;-4.50;87.80
71084;DHT22;58741;52.672;13.548;2023-03-01T02:35:59;-4.50;87.80
71084;DHT22;58741;52.672;13.548;2023-03-01T02:38:26;-4.50;88.60
71084;DHT22;58741;52.672;13.548;2023-03-01T02:40:54;-4.50;89.50
71084;DHT22;58741;52.672;13.548;2023-03-01T02:43:23;-4.60;89.50
71084;DHT22;58741;52.672;13.548;2023-03-01T02:45:50;-4.60;89.80
71084;DHT22;58741;52.672;13.548;2023-03-01T02:48:17;-4.60;90.10
71084;DHT22;58741;52.672;13.548;2023-03-01T02:53:27;-4.60;89.60
71084;DHT22;58741;52.672;13.548;2023-03-01T02:55:55;-4.70;89.50
71084;DHT22;58741;52.672;13.548;2023-03-01T02:58:21;-4.70;89.70
71084;DHT22;58741;52.672;13.548;2023-03-01T03:00:46;-4.70;89.20
71084;DHT22;58741;52.672;13.548;2023-03-01T03:03:20;-4.70;89.40
71084;DHT22;58741;52.672;13.548;2023-03-01T03:05:47;-4.70;89.50
71084;DHT22;58741;52.672;13.548;2023-03-01T03:08:14;-4.70;89.20
71084;DHT22;58741;52.672;13.548;2023-03-01T03:10:42;-4.70;89.20
71084;DHT22;58741;52.672;13.548;2023-03-01T03:13:11;-4.70;89.50
71084;DHT22;58741;52.672;13.548;2023-03-01T03:15:38;-4.80;90.00
71084;DHT22;58741;52.672;13.548;2023-03-01T03:18:08;-4.80;89.90
71084;DHT22;58741;52.672;13.548;2023-03-01T03:20:34;-4.80;89.70
71084;DHT22;58741;52.672;13.548;2023-03-01T03:23:00;-4.80;89.90
71084;DHT22;58741;52.672;13.548;2023-03-01T03:25:27;-4.80;90.00
71084;DHT22;58741;52.672;13.548;2023-03-01T03:27:53;-4.80;90.00
71084;DHT22;58741;52.672;13.548;2023-03-01T03:30:30;-4.80;90.10
71084;DHT22;58741;52.672;13.548;2023-03-01T03:32:56;-4.80;90.10
71084;DHT22;58741;52.672;13.548;2023-03-01T03:35:25;-4.80;90.40
71084;DHT22;58741;52.672;13.548;2023-03-01T03:37:52;-4.80;90.40
71084;DHT22;58741;52.672;13.548;2023-03-01T03:40:36;-4.80;90.50
71084;DHT22;58741;52.672;13.548;2023-03-01T03:43:17;-4.80;90.60
71084;DHT22;58741;52.672;13.548;2023-03-01T03:45:45;-4.80;90.70
71084;DHT22;58741;52.672;13.548;2023-03-01T03:48:10;-4.90;90.60
71084;DHT22;58741;52.672;13.548;2023-03-01T03:50:38;-4.90;90.70
71084;DHT22;58741;52.672;13.548;2023-03-01T03:53:06;-4.90;90.60
71084;DHT22;58741;52.672;13.548;2023-03-01T03:55:32;-4.90;90.90
71084;DHT22;58741;52.672;13.548;2023-03-01T03:57:59;-4.90;90.90
71084;DHT22;58741;52.672;13.548;2023-03-01T04:00:37;-4.90;90.60
71084;DHT22;58741;52.672;13.548;2023-03-01T04:03:03;-4.90;90.40
71084;DHT22;58741;52.672;13.548;2023-03-01T04:05:29;-4.90;90.40
71084;DHT22;58741;52.672;13.548;2023-03-01T04:07:56;-5.00;90.40
71084;DHT22;58741;52.672;13.548;2023-03-01T04:10:33;-5.00;90.50
71084;DHT22;58741;52.672;13.548;2023-03-01T04:12:59;-5.00;90.80
71084;DHT22;58741;52.672;13.548;2023-03-01T04:15:26;-5.00;90.80
71084;DHT22;58741;52.672;13.548;2023-03-01T04:17:53;-5.00;90.70
71084;DHT22;58741;52.672;13.548;2023-03-01T04:20:21;-5.00;90.90
71084;DHT22;58741;52.672;13.548;2023-03-01T04:25:33;-5.00;90.90
71084;DHT22;58741;52.672;13.548;2023-03-01T04:27:59;-5.10;91.00
71084;DHT22;58741;52.672;13.548;2023-03-01T04:30:24;-5.10;90.90
71084;DHT22;58741;52.672;13.548;2023-03-01T04:32:50;-5.10;90.80
71084;DHT22;58741;52.672;13.548;2023-03-01T04:35:16;-5.10;90.90
71084;DHT22;58741;52.672;13.548;2023-03-01T04:37:41;-5.10;91.10
71084;DHT22;58741;52.672;13.548;2023-03-01T04:40:07;-5.10;91.10
71084;DHT22;58741;52.672;13.548;2023-03-01T04:42:42;-5.10;91.00
71084;DHT22;58741;52.672;13.548;2023-03-01T04:45:08;-5.10;90.90
71084;DHT22;58741;52.672;13.548;2023-03-01T04:47:42;-5.10;90.70
71084;DHT22;58741;52.672;13.548;2023-03-01T04:50:10;-5.20;90.80
71084;DHT22;58741;52.672;13.548;2023-03-01T04:52:36;-5.20;90.80
71084;DHT22;58741;52.672;13.548;2023-03-01T04:55:02;-5.20;90.70
71084;DHT22;58741;52.672;13.548;2023-03-01T04:57:29;-5.20;90.90
71084;DHT22;58741;52.672;13.548;2023-03-01T04:59:55;-5.20;91.00
71084;DHT22;58741;52.672;13.548;2023-03-01T05:02:20;-5.20;90.90
71084;DHT22;58741;52.672;13.548;2023-03-01T05:04:46;-5.20;90.80
71084;DHT22;58741;52.672;13.548;2023-03-01T05:07:11;-5.20;91.00
71084;DHT22;58741;52.672;13.548;2023-03-01T05:09:38;-5.20;91.30
71084;DHT22;58741;52.672;13.548;2023-03-01T05:12:04;-5.20;91.40
71084;DHT22;58741;52.672;13.548;2023-03-01T05:14:30;-5.30;91.20
71084;DHT22;58741;52.672;13.548;2023-03-01T05:16:55;-5.20;91.30
71084;DHT22;58741;52.672;13.548;2023-03-01T05:19:29;-5.20;91.30
71084;DHT22;58741;52.672;13.548;2023-03-01T05:21:57;-5.30;91.20
71084;DHT22;58741;52.672;13.548;2023-03-01T05:24:33;-5.30;91.00
71084;DHT22;58741;52.672;13.548;2023-03-01T05:27:01;-5.30;91.30
71084;DHT22;58741;52.672;13.548;2023-03-01T05:29:28;-5.30;92.00
71084;DHT22;58741;52.672;13.548;2023-03-01T05:31:55;-5.30;91.80
71084;DHT22;58741;52.672;13.548;2023-03-01T05:34:27;-5.30;91.70
71084;DHT22;58741;52.672;13.548;2023-03-01T05:36:54;-5.30;91.50
71084;DHT22;58741;52.672;13.548;2023-03-01T05:39:21;-5.30;91.60
71084;DHT22;58741;52.672;13.548;2023-03-01T05:41:48;-5.30;91.80
71084;DHT22;58741;52.672;13.548;2023-03-01T05:44:17;-5.40;91.60
71084;DHT22;58741;52.672;13.548;2023-03-01T05:46:42;-5.40;91.50
71084;DHT22;58741;52.672;13.548;2023-03-01T05:49:08;-5.40;91.60
71084;DHT22;58741;52.672;13.548;2023-03-01T05:51:33;-5.40;91.80
71084;DHT22;58741;52.672;13.548;2023-03-01T05:53:59;-5.40;92.10
71084;DHT22;58741;52.672;13.548;2023-03-01T05:56:25;-5.40;92.00
71084;DHT22;58741;52.672;13.548;2023-03-01T05:58:50;-5.40;91.90
71084;DHT22;58741;52.672;13.548;2023-03-01T06:01:16;-5.50;91.90
71084;DHT22;58741;52.672;13.548;2023-03-01T06:03:42;-5.50;91.60
71084;DHT22;58741;52.672;13.548;2023-03-01T06:06:07;-5.50;91.60
71084;DHT22;58741;52.672;13.548;2023-03-01T06:08:33;-5.50;91.40
71084;DHT22;58741;52.672;13.548;2023-03-01T06:10:58;-5.50;91.40
71084;DHT22;58741;52.672;13.548;2023-03-01T06:13:24;-5.50;91.30
71084;DHT22;58741;52.672;13.548;2023-03-01T06:15:50;-5.50;91.30
71084;DHT22;58741;52.672;13.548;2023-03-01T06:18:15;-5.50;91.60
71084;DHT22;58741;52.672;13.548;2023-03-01T06:20:41;-5.50;91.70
71084;DHT22;58741;52.672;13.548;2023-03-01T06:23:06;-5.50;91.60
71084;DHT22;58741;52.672;13.548;2023-03-01T06:25:32;-5.40;91.70
71084;DHT22;58741;52.672;13.548;2023-03-01T06:27:58;-5.40;91.60
71084;DHT22;58741;52.672;13.548;2023-03-01T06:30:25;-5.40;91.60
71084;DHT22;58741;52.672;13.548;2023-03-01T06:32:51;-5.40;92.00
71084;DHT22;58741;52.672;13.548;2023-03-01T06:35:18;-5.30;92.50
71084;DHT22;58741;52.672;13.548;2023-03-01T06:37:44;-5.30;92.40
71084;DHT22;58741;52.672;13.548;2023-03-01T06:40:10;-5.30;92.30
71084;DHT22;58741;52.672;13.548;2023-03-01T06:42:39;-5.30;92.30
71084;DHT22;58741;52.672;13.548;2023-03-01T06:45:06;-5.20;92.40
71084;DHT22;58741;52.672;13.548;2023-03-01T06:47:33;-5.20;92.30
71084;DHT22;58741;52.672;13.548;2023-03-01T06:49:59;-5.10;92.90
71084;DHT22;58741;52.672;13.548;2023-03-01T06:52:25;-5.10;93.30
71084;DHT22;58741;52.672;13.548;2023-03-01T06:54:50;-5.10;93.40
71084;DHT22;58741;52.672;13.548;2023-03-01T06:57:16;-5.00;93.20
71084;DHT22;58741;52.672;13.548;2023-03-01T06:59:42;-4.90;93.30
71084;DHT22;58741;52.672;13.548;2023-03-01T07:02:10;-4.90;93.70
71084;DHT22;58741;52.672;13.548;2023-03-01T07:04:36;-4.80;93.80
71084;DHT22;58741;52.672;13.548;2023-03-01T07:07:02;-4.70;94.70
71084;DHT22;58741;52.672;13.548;2023-03-01T07:09:28;-4.60;94.80
71084;DHT22;58741;52.672;13.548;2023-03-01T07:11:53;-4.50;95.10
71084;DHT22;58741;52.672;13.548;2023-03-01T07:14:19;-4.50;95.90
71084;DHT22;58741;52.672;13.548;2023-03-01T07:16:45;-4.30;96.70
71084;DHT22;58741;52.672;13.548;2023-03-01T07:19:11;-4.20;96.60
71084;DHT22;58741;52.672;13.548;2023-03-01T07:21:36;-4.10;96.90
71084;DHT22;58741;52.672;13.548;2023-03-01T07:24:06;-3.90;97.30
71084;DHT22;58741;52.672;13.548;2023-03-01T07:26:31;-3.70;97.80
71084;DHT22;58741;52.672;13.548;2023-03-01T07:28:59;-3.40;98.10
71084;DHT22;58741;52.672;13.548;2023-03-01T07:31:25;-3.20;98.60
71084;DHT22;58741;52.672;13.548;2023-03-01T07:33:53;-3.00;98.50
71084;DHT22;58741;52.672;13.548;2023-03-01T07:36:19;-2.70;98.90
71084;DHT22;58741;52.672;13.548;2023-03-01T07:38:44;-2.50;99.00
71084;DHT22;58741;52.672;13.548;2023-03-01T07:41:10;-2.20;99.00
71084;DHT22;58741;52.672;13.548;2023-03-01T07:43:36;-2.00;99.40
71084;DHT22;58741;52.672;13.548;2023-03-01T07:46:01;-1.80;99.00
71084;DHT22;58741;52.672;13.548;2023-03-01T07:48:28;-1.50;98.50
71084;DHT22;58741;52.672;13.548;2023-03-01T07:50:54;-1.30;98.20
71084;DHT22;58741;52.672;13.548;2023-03-01T07:53:20;-1.10;98.10
71084;DHT22;58741;52.672;13.548;2023-03-01T07:55:45;-0.80;97.80
71084;DHT22;58741;52.672;13.548;2023-03-01T07:58:11;-0.60;97.10
71084;DHT22;58741;52.672;13.548;2023-03-01T08:00:36;-0.30;96.70
71084;DHT22;58741;52.672;13.548;2023-03-01T08:03:02;-0.10;95.80
71084;DHT22;58741;52.672;13.548;2023-03-01T08:05:28;0.10;95.50
71084;DHT22;58741;52.672;13.548;2023-03-01T08:07:54;0.40;95.60
71084;DHT22;58741;52.672;13.548;2023-03-01T08:10:20;0.60;94.50
71084;DHT22;58741;52.672;13.548;2023-03-01T08:12:46;0.90;92.60
71084;DHT22;58741;52.672;13.548;2023-03-01T08:15:11;1.20;91.70
71084;DHT22;58741;52.672;13.548;2023-03-01T08:17:37;1.40;91.40
71084;DHT22;58741;52.672;13.548;2023-03-01T08:20:03;1.70;91.80
71084;DHT22;58741;52.672;13.548;2023-03-01T08:22:31;1.90;92.10
71084;DHT22;58741;52.672;13.548;2023-03-01T08:24:57;2.20;92.00
71084;DHT22;58741;52.672;13.548;2023-03-01T08:27:22;2.50;92.00
71084;DHT22;58741;52.672;13.548;2023-03-01T08:29:48;2.80;91.10
71084;DHT22;58741;52.672;13.548;2023-03-01T08:32:13;3.00;90.10
71084;DHT22;58741;52.672;13.548;2023-03-01T08:34:39;3.30;90.10
71084;DHT22;58741;52.672;13.548;2023-03-01T08:37:05;3.50;90.40
71084;DHT22;58741;52.672;13.548;2023-03-01T08:39:30;3.80;89.30
71084;DHT22;58741;52.672;13.548;2023-03-01T08:41:56;4.00;85.50
71084;DHT22;58741;52.672;13.548;2023-03-01T08:44:22;4.30;86.00
71084;DHT22;58741;52.672;13.548;2023-03-01T08:46:48;4.50;87.30
71084;DHT22;58741;52.672;13.548;2023-03-01T08:49:17;4.80;84.50
71084;DHT22;58741;52.672;13.548;2023-03-01T08:51:44;5.00;84.50
71084;DHT22;58741;52.672;13.548;2023-03-01T08:54:20;5.20;84.00
71084;DHT22;58741;52.672;13.548;2023-03-01T08:56:47;5.50;83.40
71084;DHT22;58741;52.672;13.548;2023-03-01T08:59:14;5.70;77.60
71084;DHT22;58741;52.672;13.548;2023-03-01T09:01:40;5.80;79.20
71084;DHT22;58741;52.672;13.548;2023-03-01T09:04:09;6.10;80.80
71084;DHT22;58741;52.672;13.548;2023-03-01T09:06:34;6.30;81.20
71084;DHT22;58741;52.672;13.548;2023-03-01T09:09:02;6.40;76.50
71084;DHT22;58741;52.672;13.548;2023-03-01T09:11:28;6.70;79.00
71084;DHT22;58741;52.672;13.548;2023-03-01T09:13:54;6.80;71.70
71084;DHT22;58741;52.672;13.548;2023-03-01T09:16:20;6.90;72.00
71084;DHT22;58741;52.672;13.548;2023-03-01T09:18:51;7.10;75.80
71084;DHT22;58741;52.672;13.548;2023-03-01T09:21:18;7.30;75.20
71084;DHT22;58741;52.672;13.548;2023-03-01T09:23:46;7.40;71.20
71084;DHT22;58741;52.672;13.548;2023-03-01T09:26:17;7.60;74.00
71084;DHT22;58741;52.672;13.548;2023-03-01T09:28:45;7.80;75.40
71084;DHT22;58741;52.672;13.548;2023-03-01T09:31:11;8.00;73.00
71084;DHT22;58741;52.672;13.548;2023-03-01T09:33:41;8.20;73.60
71084;DHT22;58741;52.672;13.548;2023-03-01T09:36:14;8.40;73.40
71084;DHT22;58741;52.672;13.548;2023-03-01T09:38:40;8.60;73.70
71084;DHT22;58741;52.672;13.548;2023-03-01T09:41:57;8.80;71.10
71084;DHT22;58741;52.672;13.548;2023-03-01T09:44:00;8.90;71.40
71084;DHT22;58741;52.672;13.548;2023-03-01T09:46:41;9.10;71.70
71084;DHT22;58741;52.672;13.548;2023-03-01T09:49:14;9.30;70.50
71084;DHT22;58741;52.672;13.548;2023-03-01T09:51:43;9.50;70.00
71084;DHT22;58741;52.672;13.548;2023-03-01T09:54:14;9.60;68.10
71084;DHT22;58741;52.672;13.548;2023-03-01T09:56:53;9.80;66.50
71084;DHT22;58741;52.672;13.548;2023-03-01T09:59:26;9.80;65.90
71084;DHT22;58741;52.672;13.548;2023-03-01T10:09:44;10.20;66.20
71084;DHT22;58741;52.672;13.548;2023-03-01T10:12:16;10.30;66.60
71084;DHT22;58741;52.672;13.548;2023-03-01T10:14:51;10.40;65.00
71084;DHT22;58741;52.672;13.548;2023-03-01T10:17:45;10.50;63.10
71084;DHT22;58741;52.672;13.548;2023-03-01T10:22:42;10.70;63.20
71084;DHT22;58741;52.672;13.548;2023-03-01T10:25:13;10.70;62.40
71084;DHT22;58741;52.672;13.548;2023-03-01T10:27:53;10.60;54.30
71084;DHT22;58741;52.672;13.548;2023-03-01T10:30:39;10.60;59.60
71084;DHT22;58741;52.672;13.548;2023-03-01T10:33:23;10.60;58.60
71084;DHT22;58741;52.672;13.548;2023-03-01T10:35:50;10.70;60.30
71084;DHT22;58741;52.672;13.548;2023-03-01T10:38:17;10.80;53.90
71084;DHT22;58741;52.672;13.548;2023-03-01T10:40:58;10.70;55.90
71084;DHT22;58741;52.672;13.548;2023-03-01T10:43:40;10.80;57.70
71084;DHT22;58741;52.672;13.548;2023-03-01T10:49:13;11.10;61.00
71084;DHT22;58741;52.672;13.548;2023-03-01T10:51:41;11.30;58.30
71084;DHT22;58741;52.672;13.548;2023-03-01T10:56:53;11.50;57.80
71084;DHT22;58741;52.672;13.548;2023-03-01T10:59:27;11.60;55.00
71084;DHT22;58741;52.672;13.548;2023-03-01T11:02:17;11.70;58.70
71084;DHT22;58741;52.672;13.548;2023-03-01T11:07:22;11.90;59.10
71084;DHT22;58741;52.672;13.548;2023-03-01T11:09:48;12.00;57.70
71084;DHT22;58741;52.672;13.548;2023-03-01T11:12:14;12.20;59.30
71084;DHT22;58741;52.672;13.548;2023-03-01T11:14:50;12.30;55.10
71084;DHT22;58741;52.672;13.548;2023-03-01T11:17:23;12.30;56.60
71084;DHT22;58741;52.672;13.548;2023-03-01T11:22:58;12.50;56.00
71084;DHT22;58741;52.672;13.548;2023-03-01T11:25:27;12.60;55.90
71084;DHT22;58741;52.672;13.548;2023-03-01T11:27:54;12.70;53.80
71084;DHT22;58741;52.672;13.548;2023-03-01T11:30:28;12.70;52.30
71084;DHT22;58741;52.672;13.548;2023-03-01T11:32:57;12.70;54.00
71084;DHT22;58741;52.672;13.548;2023-03-01T11:35:27;12.70;54.20
71084;DHT22;58741;52.672;13.548;2023-03-01T11:38:05;12.70;54.40
71084;DHT22;58741;52.672;13.548;2023-03-01T11:40:39;12.80;53.30
71084;DHT22;58741;52.672;13.548;2023-03-01T11:43:23;12.80;53.00
71084;DHT22;58741;52.672;13.548;2023-03-01T11:45:58;12.80;48.30
71084;DHT22;58741;52.672;13.548;2023-03-01T11:48:40;12.80;53.00
71084;DHT22;58741;52.672;13.548;2023-03-01T11:51:37;12.80;54.60
71084;DHT22;58741;52.672;13.548;2023-03-01T11:56:54;13.00;53.20
71084;DHT22;58741;52.672;13.548;2023-03-01T12:08:10;13.40;53.00
71084;DHT22;58741;52.672;13.548;2023-03-01T12:11:04;13.50;52.40
71084;DHT22;58741;52.672;13.548;2023-03-01T12:19:30;13.80;51.00
71084;DHT22;58741;52.672;13.548;2023-03-01T12:22:11;14.00;51.70
71084;DHT22;58741;52.672;13.548;2023-03-01T12:25:00;14.10;50.70
71084;DHT22;58741;52.672;13.548;2023-03-01T12:30:42;14.30;50.50
71084;DHT22;58741;52.672;13.548;2023-03-01T12:33:22;14.40;52.00
71084;DHT22;58741;52.672;13.548;2023-03-01T12:41:20;14.70;50.00
71084;DHT22;58741;52.672;13.548;2023-03-01T12:44:08;14.80;49.90
71084;DHT22;58741;52.672;13.548;2023-03-01T12:49:17;15.00;46.70
71084;DHT22;58741;52.672;13.548;2023-03-01T12:51:54;15.00;47.80
71084;DHT22;58741;52.672;13.548;2023-03-01T12:54:28;15.20;48.40
71084;DHT22;58741;52.672;13.548;2023-03-01T12:56:56;15.40;48.50
71084;DHT22;58741;52.672;13.548;2023-03-01T12:59:39;15.50;46.50
71084;DHT22;58741;52.672;13.548;2023-03-01T13:02:23;15.60;46.10
71084;DHT22;58741;52.672;13.548;2023-03-01T13:05:06;15.70;46.60
71084;DHT22;58741;52.672;13.548;2023-03-01T13:07:48;15.70;45.60
71084;DHT22;58741;52.672;13.548;2023-03-01T13:10:21;15.90;47.60
71084;DHT22;58741;52.672;13.548;2023-03-01T13:15:35;16.10;44.60
71084;DHT22;58741;52.672;13.548;2023-03-01T13:18:48;16.30;44.30
71084;DHT22;58741;52.672;13.548;2023-03-01T13:20:52;16.40;44.30
71084;DHT22;58741;52.672;13.548;2023-03-01T13:26:03;16.60;45.10
71084;DHT22;58741;52.672;13.548;2023-03-01T13:30:57;16.80;42.40
71084;DHT22;58741;52.672;13.548;2023-03-01T13:35:48;17.00;39.80
71084;DHT22;58741;52.672;13.548;2023-03-01T13:38:55;17.00;43.20
71084;DHT22;58741;52.672;13.548;2023-03-01T13:44:34;17.00;42.50
71084;DHT22;58741;52.672;13.548;2023-03-01T13:47:15;17.20;42.00
71084;DHT22;58741;52.672;13.548;2023-03-01T13:50:00;17.20;40.80
71084;DHT22;58741;52.672;13.548;2023-03-01T13:57:39;17.40;41.20
71084;DHT22;58741;52.672;13.548;2023-03-01T14:00:05;17.50;39.00
71084;DHT22;58741;52.672;13.548;2023-03-01T14:02:32;17.20;36.80
71084;DHT22;58741;52.672;13.548;2023-03-01T14:05:00;16.80;36.50
71084;DHT22;58741;52.672;13.548;2023-03-01T14:07:27;16.40;38.90
71084;DHT22;58741;52.672;13.548;2023-03-01T14:10:02;16.00;40.00
71084;DHT22;58741;52.672;13.548;2023-03-01T14:12:38;15.60;40.30
71084;DHT22;58741;52.672;13.548;2023-03-01T14:15:53;15.30;40.80
71084;DHT22;58741;52.672;13.548;2023-03-01T14:18:34;14.90;42.20
71084;DHT22;58741;52.672;13.548;2023-03-01T14:21:07;14.50;43.50
71084;DHT22;58741;52.672;13.548;2023-03-01T14:23:33;14.30;44.20
71084;DHT22;58741;52.672;13.548;2023-03-01T14:26:01;13.90;43.30
71084;DHT22;58741;52.672;13.548;2023-03-01T14:28:31;13.60;43.40
71084;DHT22;58741;52.672;13.548;2023-03-01T14:31:29;13.30;43.20
71084;DHT22;58741;52.672;13.548;2023-03-01T14:33:55;13.00;45.10
71084;DHT22;58741;52.672;13.548;2023-03-01T14:36:27;12.70;44.90
71084;DHT22;58741;52.672;13.548;2023-03-01T14:38:53;12.50;45.30
71084;DHT22;58741;52.672;13.548;2023-03-01T14:41:22;12.30;45.70
71084;DHT22;58741;52.672;13.548;2023-03-01T14:43:54;12.10;47.70
71084;DHT22;58741;52.672;13.548;2023-03-01T14:46:38;11.90;47.90
71084;DHT22;58741;52.672;13.548;2023-03-01T14:49:10;11.70;48.50
71084;DHT22;58741;52.672;13.548;2023-03-01T14:51:39;11.50;48.90
71084;DHT22;58741;52.672;13.548;2023-03-01T14:56:47;11.20;51.10
71084;DHT22;58741;52.672;13.548;2023-03-01T14:59:12;11.00;50.90
71084;DHT22;58741;52.672;13.548;2023-03-01T15:01:40;10.90;51.20
71084;DHT22;58741;52.672;13.548;2023-03-01T15:04:08;10.90;51.60
71084;DHT22;58741;52.672;13.548;2023-03-01T15:06:36;10.90;53.30
71084;DHT22;58741;52.672;13.548;2023-03-01T15:09:03;10.90;51.00
71084;DHT22;58741;52.672;13.548;2023-03-01T15:11:31;10.90;50.80
71084;DHT22;58741;52.672;13.548;2023-03-01T15:13:58;10.90;50.90
71084;DHT22;58741;52.672;13.548;2023-03-01T15:16:29;10.80;52.70
71084;DHT22;58741;52.672;13.548;2023-03-01T15:19:01;10.90;53.80
71084;DHT22;58741;52.672;13.548;2023-03-01T15:21:32;11.10;54.50
71084;DHT22;58741;52.672;13.548;2023-03-01T15:24:13;11.40;54.30
71084;DHT22;58741;52.672;13.548;2023-03-01T15:26:58;11.70;53.80
71084;DHT22;58741;52.672;13.548;2023-03-01T15:29:29;12.00;51.40
71084;DHT22;58741;52.672;13.548;2023-03-01T15:31:59;12.00;49.30
71084;DHT22;58741;52.672;13.548;2023-03-01T15:34:29;11.90;49.40
71084;DHT22;58741;52.672;13.548;2023-03-01T15:36:57;11.70;49.10
71084;DHT22;58741;52.672;13.548;2023-03-01T15:39:42;11.50;49.60
71084;DHT22;58741;52.672;13.548;2023-03-01T15:42:52;11.20;49.60
71084;DHT22;58741;52.672;13.548;2023-03-01T15:45:23;11.00;50.20
71084;DHT22;58741;52.672;13.548;2023-03-01T15:47:53;10.80;50.00
71084;DHT22;58741;52.672;13.548;2023-03-01T15:52:33;10.50;50.30
71084;DHT22;58741;52.672;13.548;2023-03-01T15:56:41;10.10;51.10
71084;DHT22;58741;52.672;13.548;2023-03-01T16:07:15;9.30;53.30
71084;DHT22;58741;52.672;13.548;2023-03-01T16:09:40;9.20;53.80
71084;DHT22;58741;52.672;13.548;2023-03-01T16:12:12;9.10;53.80
71084;DHT22;58741;52.672;13.548;2023-03-01T16:14:39;9.00;54.20
71084;DHT22;58741;52.672;13.548;2023-03-01T16:17:04;8.80;54.90
71084;DHT22;58741;52.672;13.548;2023-03-01T16:19:30;8.70;55.20
71084;DHT22;58741;52.672;13.548;2023-03-01T16:21:56;8.60;55.80
71084;DHT22;58741;52.672;13.548;2023-03-01T16:24:21;8.50;56.00
71084;DHT22;58741;52.672;13.548;2023-03-01T16:26:47;8.30;56.60
71084;DHT22;58741;52.672;13.548;2023-03-01T16:29:12;8.10;57.10
71084;DHT22;58741;52.672;13.548;2023-03-01T16:31:38;8.00;57.30
71084;DHT22;58741;52.672;13.548;2023-03-01T16:34:04;7.80;57.40
71084;DHT22;58741;52.672;13.548;2023-03-01T16:36:29;7.70;57.90
71084;DHT22;58741;52.672;13.548;2023-03-01T16:38:58;7.60;58.20
71084;DHT22;58741;52.672;13.548;2023-03-01T16:41:24;7.40;58.50
71084;DHT22;58741;52.672;13.548;2023-03-01T16:43:50;7.30;58.90
71084;DHT22;58741;52.672;13.548;2023-03-01T16:46:19;7.20;59.10
71084;DHT22;58741;52.672;13.548;2023-03-01T16:48:46;7.00;59.60
71084;DHT22;58741;52.672;13.548;2023-03-01T16:51:12;6.90;60.10
71084;DHT22;58741;52.672;13.548;2023-03-01T16:53:38;6.70;60.30
71084;DHT22;58741;52.672;13.548;2023-03-01T16:56:06;6.60;60.50
71084;DHT22;58741;52.672;13.548;2023-03-01T16:58:33;6.40;61.00
71084;DHT22;58741;52.672;13.548;2023-03-01T17:01:08;6.30;62.00
71084;DHT22;58741;52.672;13.548;2023-03-01T17:03:34;6.20;61.60
71084;DHT22;58741;52.672;13.548;2023-03-01T17:06:08;6.00;61.70
71084;DHT22;58741;52.672;13.548;2023-03-01T17:08:35;5.90;62.10
71084;DHT22;58741;52.672;13.548;2023-03-01T17:11:09;5.70;62.30
71084;DHT22;58741;52.672;13.548;2023-03-01T17:13:36;5.60;62.60
71084;DHT22;58741;52.672;13.548;2023-03-01T17:16:04;5.50;62.90